Time;durP1;ratioP1;P1;durP2;ratioP2;P2;SDS_P1;SDS_P2;PMS_P1;PMS_P2;Temp;Humidity;BMP_temperature;BMP_pressure;BME280_temperature;BME280_humidity;BME280_pressure;Samples;Min_cycle;Max_cycle;Signal;HPM_P1;HPM_P2
2022/07/31 00:00:10;;;;;;;84.65;51.05;;;;;;;;;;1673630;29;21634;-63
2022/07/31 00:01:02;;;;;;;82.78;50.53;;;;;;;;;;1675316;29;21619;-63
2022/07/31 00:01:54;;;;;;;83.07;50.70;;;;;;;;;;1673198;29;22254;-63
2022/07/31 00:02:46;;;;;;;90.45;49.92;;;;;;;;;;1673517;29;21749;-63
2022/07/31 00:03:37;;;;;;;78.50;48.13;;;;;;;;;;1676140;29;21990;-64
2022/07/31 00:04:30;;;;;;;81.25;47.58;;;;;;;;;;1675892;29;21634;-63
2022/07/31 00:05:23;;;;;;;83.00;47.92;;;;;;;;;;1674334;29;21715;-63
2022/07/31 00:06:15;;;;;;;85.63;49.10;;;;;;;;;;1669408;29;22446;-63
2022/07/31 00:07:07;;;;;;;77.53;45.60;;;;;;;;;;1669346;29;21567;-63
2022/07/31 00:07:59;;;;;;;76.70;44.42;;;;;;;;;;1672881;29;21625;-62
2022/07/31 00:08:52;;;;;;;78.40;45.08;;;;;;;;;;1675409;29;21780;-63
2022/07/31 00:09:43;;;;;;;80.22;44.60;;;;;;;;;;1675959;29;22098;-62
2022/07/31 00:10:36;;;;;;;78.57;44.75;;;;;;;;;;1676164;29;21961;-63
2022/07/31 00:11:27;;;;;;;71.15;42.15;;;;;;;;;;1672850;29;21622;-63
2022/07/31 00:12:20;;;;;;;72.68;42.95;;;;;;;;;;1666702;29;21670;-63
2022/07/31 00:13:11;;;;;;;75.45;41.88;;;;;;;;;;1668181;29;21604;-64
2022/07/31 00:14:04;;;;;;;62.45;39.95;;;;;;;;;;1672301;29;21761;-64
2022/07/31 00:14:55;;;;;;;66.80;39.78;;;;;;;;;;1675337;29;22313;-62
2022/07/31 00:15:47;;;;;;;71.85;40.38;;;;;;;;;;1677596;29;22571;-64
2022/07/31 00:16:39;;;;;;;67.35;40.42;;;;;;;;;;1673212;29;21653;-64
2022/07/31 00:17:31;;;;;;;65.80;40.17;;;;;;;;;;1676299;29;21604;-64
2022/07/31 00:18:22;;;;;;;63.90;38.88;;;;;;;;;;1675012;29;22116;-63
2022/07/31 00:19:16;;;;;;;70.72;38.88;;;;;;;;;;1674066;29;21720;-63
2022/07/31 00:20:12;;;;;;;57.60;37.50;;;;;;;;;;1675184;29;21585;-64
2022/07/31 00:21:05;;;;;;;61.33;37.22;;;;;;;;;;1674750;29;22779;-64
2022/07/31 00:21:57;;;;;;;60.20;35.58;;;;;;;;;;1673605;29;22506;-64
2022/07/31 00:22:49;;;;;;;56.42;35.05;;;;;;;;;;1675441;29;22099;-64
2022/07/31 00:23:40;;;;;;;65.78;35.20;;;;;;;;;;1675224;29;21715;-64
2022/07/31 00:24:34;;;;;;;54.60;33.42;;;;;;;;;;1672696;29;21762;-64
2022/07/31 00:25:25;;;;;;;55.08;33.83;;;;;;;;;;1677583;29;21637;-64
2022/07/31 00:26:18;;;;;;;50.55;32.75;;;;;;;;;;1674920;29;21632;-64
2022/07/31 00:27:09;;;;;;;52.92;29.83;;;;;;;;;;1673810;29;22408;-64
2022/07/31 00:28:01;;;;;;;50.70;30.63;;;;;;;;;;1675094;29;21602;-64
2022/07/31 00:28:53;;;;;;;50.78;30.02;;;;;;;;;;1677866;29;21645;-64
2022/07/31 00:29:45;;;;;;;47.03;30.30;;;;;;;;;;1673787;29;22434;-64
2022/07/31 00:30:36;;;;;;;42.83;28.42;;;;;;;;;;1673952;29;21646;-64
2022/07/31 00:31:29;;;;;;;41.03;27.25;;;;;;;;;;1665511;29;22052;-64
2022/07/31 00:32:20;;;;;;;42.97;27.30;;;;;;;;;;1664591;29;21808;-64
2022/07/31 00:33:12;;;;;;;39.17;26.05;;;;;;;;;;1666799;29;22119;-64
2022/07/31 00:34:03;;;;;;;41.00;26.58;;;;;;;;;;1669242;29;21585;-64
2022/07/31 00:34:55;;;;;;;40.40;24.90;;;;;;;;;;1673077;29;21731;-64
2022/07/31 00:35:47;;;;;;;40.00;24.80;;;;;;;;;;1674545;29;21615;-64
2022/07/31 00:36:39;;;;;;;37.03;24.23;;;;;;;;;;1675507;29;21617;-64
2022/07/31 00:37:30;;;;;;;38.70;24.05;;;;;;;;;;1674171;29;22890;-63
2022/07/31 00:38:23;;;;;;;32.95;23.08;;;;;;;;;;1668987;29;22008;-63
2022/07/31 00:39:14;;;;;;;35.67;23.98;;;;;;;;;;1671514;29;21905;-63
2022/07/31 00:40:10;;;;;;;32.08;22.23;;;;;;;;;;1672538;29;21749;-63
2022/07/31 00:41:02;;;;;;;37.30;22.20;;;;;;;;;;1672588;29;22067;-63
2022/07/31 00:41:54;;;;;;;31.83;20.77;;;;;;;;;;1674173;29;22188;-63
2022/07/31 00:42:46;;;;;;;32.08;20.63;;;;;;;;;;1676308;29;21626;-64
2022/07/31 00:43:38;;;;;;;29.00;20.10;;;;;;;;;;1674750;29;22011;-63
2022/07/31 00:44:29;;;;;;;27.38;19.15;;;;;;;;;;1675584;29;21762;-63
2022/07/31 00:45:23;;;;;;;27.70;18.67;;;;;;;;;;1667422;29;21987;-64
2022/07/31 00:46:14;;;;;;;28.02;18.73;;;;;;;;;;1666874;29;21615;-64
2022/07/31 00:47:07;;;;;;;25.83;18.00;;;;;;;;;;1671616;29;22639;-63
2022/07/31 00:48:00;;;;;;;28.67;18.70;;;;;;;;;;1675199;29;21843;-63
2022/07/31 00:48:52;;;;;;;25.30;17.25;;;;;;;;;;1670590;29;21896;-63
2022/07/31 00:49:43;;;;;;;20.25;16.05;;;;;;;;;;1675112;29;22742;-64
2022/07/31 00:50:37;;;;;;;21.30;16.02;;;;;;;;;;1675113;29;21681;-65
2022/07/31 00:51:28;;;;;;;21.08;16.27;;;;;;;;;;1671295;29;21701;-64
2022/07/31 00:52:21;;;;;;;20.20;15.48;;;;;;;;;;1666408;29;21639;-62
2022/07/31 00:53:12;;;;;;;19.35;15.30;;;;;;;;;;1667988;29;22298;-63
2022/07/31 00:54:04;;;;;;;19.13;14.80;;;;;;;;;;1673591;29;22004;-63
2022/07/31 00:54:56;;;;;;;18.73;14.45;;;;;;;;;;1673293;29;21705;-63
2022/07/31 00:55:49;;;;;;;19.25;15.23;;;;;;;;;;1668074;29;21647;-63
2022/07/31 00:56:41;;;;;;;19.55;14.13;;;;;;;;;;1666254;29;21730;-63
2022/07/31 00:57:33;;;;;;;17.25;14.30;;;;;;;;;;1672354;29;22731;-63
2022/07/31 00:58:24;;;;;;;14.73;13.02;;;;;;;;;;1674669;29;21653;-63
2022/07/31 00:59:17;;;;;;;18.80;13.25;;;;;;;;;;1669216;29;22342;-63
2022/07/31 01:00:10;;;;;;;15.88;12.27;;;;;;;;;;1667660;29;22799;-63
2022/07/31 01:01:02;;;;;;;17.38;12.02;;;;;;;;;;1671436;29;21999;-63
2022/07/31 01:01:55;;;;;;;13.48;12.02;;;;;;;;;;1673253;29;21606;-63
2022/07/31 01:02:48;;;;;;;14.05;11.27;;;;;;;;;;1674643;29;21615;-63
2022/07/31 01:03:39;;;;;;;16.10;11.30;;;;;;;;;;1675224;29;21620;-63
2022/07/31 01:04:31;;;;;;;12.77;11.60;;;;;;;;;;1674813;29;21977;-63
2022/07/31 01:05:23;;;;;;;14.57;11.77;;;;;;;;;;1673872;29;21938;-63
2022/07/31 01:06:15;;;;;;;11.20;10.18;;;;;;;;;;1676537;29;22257;-64
2022/07/31 01:07:06;;;;;;;10.75;9.70;;;;;;;;;;1675727;29;21783;-63
2022/07/31 01:07:58;;;;;;;12.88;9.80;;;;;;;;;;1672528;29;21628;-64
2022/07/31 01:08:49;;;;;;;10.90;9.90;;;;;;;;;;1675046;29;22513;-63
2022/07/31 01:09:43;;;;;;;10.32;9.52;;;;;;;;;;1669622;29;22043;-64
2022/07/31 01:10:53;;;;;;;10.23;9.18;;;;;;;;;;1667275;29;21683;-63
2022/07/31 01:11:51;;;;;;;12.32;9.18;;;;;;;;;;1673021;29;21723;-63
2022/07/31 01:12:50;;;;;;;9.02;8.25;;;;;;;;;;1668842;29;21681;-63
2022/07/31 01:13:49;;;;;;;10.13;9.18;;;;;;;;;;1672645;29;22635;-63
2022/07/31 01:14:46;;;;;;;9.45;8.52;;;;;;;;;;1673807;29;22501;-63
2022/07/31 01:15:40;;;;;;;9.23;7.93;;;;;;;;;;1675827;29;21764;-63
2022/07/31 01:16:37;;;;;;;9.57;7.47;;;;;;;;;;1672778;29;21850;-63
2022/07/31 01:17:31;;;;;;;8.38;7.75;;;;;;;;;;1667815;29;21941;-63
2022/07/31 01:18:25;;;;;;;7.97;7.28;;;;;;;;;;1668941;29;21824;-63
2022/07/31 01:19:25;;;;;;;8.32;7.03;;;;;;;;;;1672326;29;22331;-63
2022/07/31 01:20:16;;;;;;;7.35;6.68;;;;;;;;;;1675936;29;21799;-63
2022/07/31 01:21:16;;;;;;;6.65;6.10;;;;;;;;;;1673314;29;22587;-63
2022/07/31 01:22:27;;;;;;;6.25;5.85;;;;;;;;;;1667550;29;21710;-63
2022/07/31 01:23:45;;;;;;;7.68;7.07;;;;;;;;;;1662351;29;21606;-63
2022/07/31 01:25:01;;;;;;;7.30;6.50;;;;;;;;;;1672672;29;22145;-63
2022/07/31 01:26:12;;;;;;;6.43;5.95;;;;;;;;;;1671162;29;22154;-63
2022/07/31 01:27:10;;;;;;;6.10;5.68;;;;;;;;;;1672499;29;22292;-64
2022/07/31 01:28:15;;;;;;;7.40;5.80;;;;;;;;;;1672211;29;22825;-63
2022/07/31 01:29:15;;;;;;;6.40;5.93;;;;;;;;;;1675936;29;21683;-64
2022/07/31 01:30:08;;;;;;;6.07;5.68;;;;;;;;;;1673145;29;22421;-63
2022/07/31 01:31:09;;;;;;;5.82;5.35;;;;;;;;;;1677382;29;21641;-64
2022/07/31 01:32:06;;;;;;;5.57;5.18;;;;;;;;;;1672324;29;21775;-64
2022/07/31 01:33:01;;;;;;;5.82;5.43;;;;;;;;;;1675787;29;22045;-64
2022/07/31 01:34:02;;;;;;;5.75;4.53;;;;;;;;;;1675261;29;21608;-64
2022/07/31 01:34:59;;;;;;;5.13;4.72;;;;;;;;;;1670548;29;22116;-64
2022/07/31 01:35:55;;;;;;;5.53;5.13;;;;;;;;;;1674125;29;22379;-64
2022/07/31 01:36:55;;;;;;;5.22;4.63;;;;;;;;;;1675140;29;21654;-64
2022/07/31 01:37:53;;;;;;;4.85;4.45;;;;;;;;;;1673489;29;22324;-64
2022/07/31 01:38:50;;;;;;;5.25;4.78;;;;;;;;;;1674112;29;22439;-63
2022/07/31 01:39:50;;;;;;;4.80;4.43;;;;;;;;;;1675039;29;22099;-64
2022/07/31 01:40:45;;;;;;;4.35;4.05;;;;;;;;;;1674790;29;22643;-63
2022/07/31 01:41:42;;;;;;;4.63;4.32;;;;;;;;;;1674815;29;22131;-64
2022/07/31 01:42:35;;;;;;;4.57;4.28;;;;;;;;;;1674756;29;21970;-64
2022/07/31 01:43:33;;;;;;;6.03;4.07;;;;;;;;;;1676567;29;21783;-64
2022/07/31 01:44:28;;;;;;;4.30;4.00;;;;;;;;;;1674757;29;22149;-64
2022/07/31 01:45:22;;;;;;;3.92;3.60;;;;;;;;;;1675491;29;21723;-64
2022/07/31 01:46:15;;;;;;;4.40;4.10;;;;;;;;;;1674361;29;21903;-64
2022/07/31 01:47:10;;;;;;;3.55;3.30;;;;;;;;;;1673825;29;21919;-64
2022/07/31 01:48:04;;;;;;;5.35;3.65;;;;;;;;;;1674989;29;22458;-64
2022/07/31 01:48:57;;;;;;;3.13;2.92;;;;;;;;;;1673494;29;21757;-64
2022/07/31 01:49:50;;;;;;;3.60;3.30;;;;;;;;;;1673864;29;21608;-64
2022/07/31 01:50:44;;;;;;;3.72;3.50;;;;;;;;;;1674592;29;21649;-64
2022/07/31 01:51:37;;;;;;;3.90;3.60;;;;;;;;;;1672152;29;22002;-63
2022/07/31 01:52:31;;;;;;;3.20;3.00;;;;;;;;;;1676619;29;22323;-64
2022/07/31 01:53:25;;;;;;;3.58;3.28;;;;;;;;;;1675069;29;22279;-63
2022/07/31 01:54:20;;;;;;;3.95;3.65;;;;;;;;;;1675224;29;21657;-63
2022/07/31 01:55:14;;;;;;;3.33;3.03;;;;;;;;;;1675292;29;22475;-63
2022/07/31 01:56:08;;;;;;;3.45;2.95;;;;;;;;;;1676097;29;21749;-64
2022/07/31 01:57:02;;;;;;;3.85;3.47;;;;;;;;;;1675758;29;21571;-63
2022/07/31 01:57:55;;;;;;;2.95;2.75;;;;;;;;;;1674672;29;21686;-63
2022/07/31 01:58:48;;;;;;;3.15;2.95;;;;;;;;;;1675109;29;21623;-63
2022/07/31 01:59:44;;;;;;;3.33;3.03;;;;;;;;;;1675882;29;22651;-63
2022/07/31 02:00:36;;;;;;;2.80;2.60;;;;;;;;;;1674396;29;21671;-62
2022/07/31 02:01:29;;;;;;;2.63;2.42;;;;;;;;;;1675097;29;22717;-63
2022/07/31 02:02:21;;;;;;;3.22;2.95;;;;;;;;;;1676863;29;21602;-63
2022/07/31 02:03:15;;;;;;;2.55;2.35;;;;;;;;;;1674471;29;21788;-63
2022/07/31 02:04:06;;;;;;;3.00;2.53;;;;;;;;;;1674810;29;22262;-63
2022/07/31 02:04:59;;;;;;;3.28;2.67;;;;;;;;;;1675736;29;22129;-63
2022/07/31 02:05:51;;;;;;;2.75;2.55;;;;;;;;;;1674263;29;21979;-63
2022/07/31 02:06:46;;;;;;;2.70;2.50;;;;;;;;;;1676124;29;21616;-63
2022/07/31 02:07:40;;;;;;;2.75;2.55;;;;;;;;;;1677950;29;21855;-63
2022/07/31 02:08:34;;;;;;;2.05;1.95;;;;;;;;;;1674509;29;22591;-63
2022/07/31 02:09:27;;;;;;;2.35;2.25;;;;;;;;;;1674355;29;22414;-63
2022/07/31 02:10:19;;;;;;;2.00;1.90;;;;;;;;;;1675536;29;22448;-63
2022/07/31 02:11:12;;;;;;;2.55;2.22;;;;;;;;;;1673934;29;21667;-64
2022/07/31 02:12:05;;;;;;;2.90;1.98;;;;;;;;;;1674874;29;21832;-63
2022/07/31 02:12:58;;;;;;;1.92;1.77;;;;;;;;;;1668677;29;21852;-63
2022/07/31 02:13:52;;;;;;;2.33;2.13;;;;;;;;;;1668237;29;22210;-63
2022/07/31 02:14:46;;;;;;;4.68;2.00;;;;;;;;;;1670483;29;21621;-63
2022/07/31 02:15:39;;;;;;;3.15;2.10;;;;;;;;;;1675792;28;21988;-63
2022/07/31 02:16:32;;;;;;;1.92;1.80;;;;;;;;;;1675184;29;22516;-64
2022/07/31 02:17:24;;;;;;;1.92;1.65;;;;;;;;;;1674327;29;21597;-63
2022/07/31 02:18:18;;;;;;;2.28;2.10;;;;;;;;;;1677053;29;22308;-63
2022/07/31 02:19:10;;;;;;;1.80;1.70;;;;;;;;;;1671112;29;21943;-64
2022/07/31 02:20:06;;;;;;;2.00;1.85;;;;;;;;;;1674805;29;21869;-63
2022/07/31 02:20:57;;;;;;;1.63;1.52;;;;;;;;;;1675169;29;21642;-63
2022/07/31 02:21:49;;;;;;;2.50;2.30;;;;;;;;;;1673598;29;21858;-63
2022/07/31 02:22:41;;;;;;;1.52;1.42;;;;;;;;;;1675875;29;22111;-63
2022/07/31 02:23:33;;;;;;;2.00;1.90;;;;;;;;;;1676084;29;21700;-63
2022/07/31 02:24:25;;;;;;;1.90;1.80;;;;;;;;;;1674402;29;21983;-63
2022/07/31 02:25:17;;;;;;;2.10;2.00;;;;;;;;;;1674150;29;21947;-63
2022/07/31 02:26:09;;;;;;;3.38;1.85;;;;;;;;;;1676987;29;21602;-63
2022/07/31 02:27:02;;;;;;;2.38;1.67;;;;;;;;;;1673999;29;21796;-63
2022/07/31 02:27:55;;;;;;;1.67;1.58;;;;;;;;;;1673587;29;21717;-63
2022/07/31 02:28:49;;;;;;;1.77;1.65;;;;;;;;;;1675817;29;21633;-64
2022/07/31 02:29:41;;;;;;;2.88;2.00;;;;;;;;;;1675826;29;21608;-64
2022/07/31 02:30:37;;;;;;;1.80;1.70;;;;;;;;;;1674319;29;21631;-64
2022/07/31 02:31:32;;;;;;;2.20;1.67;;;;;;;;;;1673584;29;21613;-64
2022/07/31 02:32:26;;;;;;;1.92;1.80;;;;;;;;;;1675126;29;22189;-64
2022/07/31 02:33:20;;;;;;;2.05;1.65;;;;;;;;;;1675939;29;22565;-64
2022/07/31 02:34:14;;;;;;;2.40;2.20;;;;;;;;;;1676209;29;21596;-64
2022/07/31 02:35:09;;;;;;;1.60;1.50;;;;;;;;;;1675112;29;21968;-64
2022/07/31 02:36:03;;;;;;;1.80;1.70;;;;;;;;;;1675029;29;21619;-64
2022/07/31 02:36:55;;;;;;;1.63;1.52;;;;;;;;;;1675750;29;21641;-64
2022/07/31 02:37:52;;;;;;;2.38;1.83;;;;;;;;;;1675662;29;21556;-64
2022/07/31 02:38:45;;;;;;;1.80;1.70;;;;;;;;;;1674749;29;21968;-63
2022/07/31 02:39:39;;;;;;;1.33;1.23;;;;;;;;;;1675829;29;21593;-64
2022/07/31 02:40:30;;;;;;;1.38;1.27;;;;;;;;;;1669241;29;22537;-64
2022/07/31 02:41:24;;;;;;;1.52;1.42;;;;;;;;;;1673060;29;21701;-64
2022/07/31 02:42:16;;;;;;;1.67;1.50;;;;;;;;;;1675546;29;21659;-64
2022/07/31 02:43:11;;;;;;;1.33;1.23;;;;;;;;;;1676325;29;22382;-64
2022/07/31 02:44:03;;;;;;;1.35;1.25;;;;;;;;;;1674500;29;21592;-63
2022/07/31 02:44:56;;;;;;;1.45;1.35;;;;;;;;;;1675740;29;21643;-64
2022/07/31 02:45:49;;;;;;;1.38;1.27;;;;;;;;;;1675556;29;22399;-64
2022/07/31 02:46:43;;;;;;;1.40;1.30;;;;;;;;;;1673919;29;21732;-64
2022/07/31 02:47:36;;;;;;;1.10;1.10;;;;;;;;;;1675707;29;21656;-64
2022/07/31 02:48:28;;;;;;;1.33;1.23;;;;;;;;;;1672141;29;21593;-64
2022/07/31 02:49:20;;;;;;;1.67;1.42;;;;;;;;;;1674074;29;21639;-64
2022/07/31 02:50:13;;;;;;;1.70;1.60;;;;;;;;;;1675754;29;21901;-64
2022/07/31 02:51:05;;;;;;;1.40;1.30;;;;;;;;;;1672751;29;21576;-64
2022/07/31 02:51:58;;;;;;;1.50;1.40;;;;;;;;;;1673282;29;21944;-64
2022/07/31 02:52:49;;;;;;;1.40;1.30;;;;;;;;;;1676604;29;21591;-64
2022/07/31 02:53:42;;;;;;;1.85;1.10;;;;;;;;;;1675784;29;22277;-64
2022/07/31 02:54:38;;;;;;;1.30;1.20;;;;;;;;;;1673276;29;21808;-63
2022/07/31 02:55:30;;;;;;;1.77;1.48;;;;;;;;;;1676955;29;21918;-64
2022/07/31 02:56:23;;;;;;;1.73;1.40;;;;;;;;;;1675544;29;21641;-64
2022/07/31 02:57:16;;;;;;;1.00;0.95;;;;;;;;;;1674433;29;21635;-63
2022/07/31 02:58:07;;;;;;;1.42;1.30;;;;;;;;;;1675792;29;22370;-64
2022/07/31 02:59:00;;;;;;;1.30;1.20;;;;;;;;;;1678149;29;21621;-64
2022/07/31 02:59:51;;;;;;;2.58;0.93;;;;;;;;;;1673517;29;22363;-64
2022/07/31 03:00:42;;;;;;;1.15;0.90;;;;;;;;;;1675872;29;22512;-64
2022/07/31 03:01:37;;;;;;;1.42;1.33;;;;;;;;;;1673178;29;22149;-64
2022/07/31 03:02:29;;;;;;;1.05;1.05;;;;;;;;;;1674224;29;22388;-64
2022/07/31 03:03:21;;;;;;;1.42;1.33;;;;;;;;;;1675190;29;21659;-64
2022/07/31 03:04:13;;;;;;;1.20;1.10;;;;;;;;;;1675848;29;21625;-64
2022/07/31 03:05:06;;;;;;;1.10;1.10;;;;;;;;;;1674771;29;22060;-64
2022/07/31 03:05:57;;;;;;;1.30;1.20;;;;;;;;;;1675563;29;22688;-64
2022/07/31 03:06:50;;;;;;;1.30;1.20;;;;;;;;;;1668716;29;22543;-64
2022/07/31 03:07:41;;;;;;;1.10;1.10;;;;;;;;;;1665802;29;22044;-64
2022/07/31 03:08:34;;;;;;;1.73;1.38;;;;;;;;;;1674093;29;21795;-64
2022/07/31 03:09:25;;;;;;;1.20;1.10;;;;;;;;;;1675200;29;21707;-64
2022/07/31 03:10:17;;;;;;;2.17;1.20;;;;;;;;;;1676847;29;22577;-64
2022/07/31 03:11:09;;;;;;;1.20;1.10;;;;;;;;;;1674416;29;21828;-64
2022/07/31 03:12:02;;;;;;;1.20;1.02;;;;;;;;;;1675932;29;21803;-64
2022/07/31 03:12:55;;;;;;;0.90;0.90;;;;;;;;;;1676864;29;21570;-64
2022/07/31 03:13:47;;;;;;;2.75;1.10;;;;;;;;;;1671834;29;21591;-64
2022/07/31 03:14:39;;;;;;;1.08;1.08;;;;;;;;;;1675765;29;22009;-64
2022/07/31 03:15:32;;;;;;;1.38;1.15;;;;;;;;;;1676458;29;21876;-64
2022/07/31 03:16:24;;;;;;;1.05;1.00;;;;;;;;;;1673762;29;22047;-64
2022/07/31 03:17:19;;;;;;;1.77;1.10;;;;;;;;;;1664975;29;22641;-64
2022/07/31 03:18:13;;;;;;;1.30;1.20;;;;;;;;;;1670873;29;21676;-64
2022/07/31 03:19:07;;;;;;;1.02;1.02;;;;;;;;;;1671805;29;21961;-65
2022/07/31 03:19:58;;;;;;;1.67;1.48;;;;;;;;;;1672765;29;21812;-64
2022/07/31 03:20:51;;;;;;;1.05;1.05;;;;;;;;;;1675111;29;22611;-64
2022/07/31 03:21:43;;;;;;;0.73;0.73;;;;;;;;;;1673139;29;22600;-65
2022/07/31 03:22:35;;;;;;;1.05;1.05;;;;;;;;;;1676403;29;21581;-64
2022/07/31 03:23:34;;;;;;;1.00;1.00;;;;;;;;;;1677333;29;21923;-64
2022/07/31 03:24:27;;;;;;;1.20;1.10;;;;;;;;;;1673170;29;21706;-64
2022/07/31 03:25:18;;;;;;;1.30;1.20;;;;;;;;;;1672049;29;22002;-64
2022/07/31 03:26:12;;;;;;;0.98;0.98;;;;;;;;;;1675699;29;21734;-64
2022/07/31 03:27:03;;;;;;;1.05;0.95;;;;;;;;;;1677307;29;21644;-64
2022/07/31 03:27:55;;;;;;;1.10;1.08;;;;;;;;;;1675519;29;21739;-64
2022/07/31 03:28:47;;;;;;;1.20;1.10;;;;;;;;;;1674118;29;21892;-64
2022/07/31 03:29:40;;;;;;;1.23;1.10;;;;;;;;;;1674491;29;21800;-64
2022/07/31 03:30:31;;;;;;;1.00;0.90;;;;;;;;;;1675395;29;22469;-64
2022/07/31 03:31:25;;;;;;;1.33;1.23;;;;;;;;;;1676630;29;21544;-65
2022/07/31 03:32:18;;;;;;;1.17;1.08;;;;;;;;;;1674536;29;21623;-64
2022/07/31 03:33:10;;;;;;;1.05;1.05;;;;;;;;;;1676524;29;21648;-64
2022/07/31 03:34:01;;;;;;;0.90;0.90;;;;;;;;;;1674054;29;21762;-65
2022/07/31 03:34:54;;;;;;;1.00;1.00;;;;;;;;;;1674429;29;21709;-64
2022/07/31 03:35:45;;;;;;;0.85;0.82;;;;;;;;;;1675184;29;21613;-63
2022/07/31 03:36:38;;;;;;;0.77;0.77;;;;;;;;;;1675020;29;21679;-63
2022/07/31 03:37:30;;;;;;;1.20;1.10;;;;;;;;;;1674237;29;21695;-63
2022/07/31 03:38:21;;;;;;;0.75;0.75;;;;;;;;;;1676402;29;21610;-63
2022/07/31 03:39:15;;;;;;;0.88;0.88;;;;;;;;;;1676399;29;21686;-64
2022/07/31 03:40:08;;;;;;;1.23;1.08;;;;;;;;;;1676727;29;21610;-63
2022/07/31 03:41:00;;;;;;;0.95;0.70;;;;;;;;;;1673323;29;22018;-63
2022/07/31 03:41:53;;;;;;;4.03;1.15;;;;;;;;;;1675231;29;22475;-63
2022/07/31 03:42:47;;;;;;;3.80;1.00;;;;;;;;;;1669065;29;21727;-63
2022/07/31 03:43:40;;;;;;;1.90;1.27;;;;;;;;;;1674180;29;21628;-63
2022/07/31 03:44:33;;;;;;;1.15;1.08;;;;;;;;;;1667773;29;22610;-63
2022/07/31 03:45:26;;;;;;;3.67;0.98;;;;;;;;;;1668318;29;21610;-63
2022/07/31 03:46:21;;;;;;;0.75;0.75;;;;;;;;;;1671251;29;21581;-63
2022/07/31 03:47:12;;;;;;;0.80;0.80;;;;;;;;;;1674972;29;21987;-63
2022/07/31 03:48:08;;;;;;;1.08;1.00;;;;;;;;;;1674016;29;22221;-63
2022/07/31 03:48:59;;;;;;;1.98;1.05;;;;;;;;;;1672539;29;21673;-63
2022/07/31 03:49:52;;;;;;;1.35;1.17;;;;;;;;;;1674804;29;21655;-63
2022/07/31 03:50:44;;;;;;;1.85;0.90;;;;;;;;;;1675315;29;21601;-63
2022/07/31 03:51:37;;;;;;;1.08;0.90;;;;;;;;;;1675804;29;21600;-63
2022/07/31 03:52:28;;;;;;;4.82;0.90;;;;;;;;;;1674296;29;22363;-63
2022/07/31 03:53:22;;;;;;;2.03;0.93;;;;;;;;;;1676519;29;22581;-63
2022/07/31 03:54:13;;;;;;;4.15;0.95;;;;;;;;;;1674166;29;22391;-63
2022/07/31 03:55:07;;;;;;;1.13;0.90;;;;;;;;;;1674236;29;21917;-63
2022/07/31 03:55:59;;;;;;;0.85;0.80;;;;;;;;;;1675352;29;21580;-63
2022/07/31 03:56:54;;;;;;;0.98;0.82;;;;;;;;;;1667268;29;21643;-63
2022/07/31 03:57:46;;;;;;;2.10;0.80;;;;;;;;;;1669121;29;22579;-63
2022/07/31 03:58:38;;;;;;;2.70;1.15;;;;;;;;;;1673360;29;21674;-63
2022/07/31 03:59:33;;;;;;;1.02;1.00;;;;;;;;;;1668205;29;21636;-64
2022/07/31 04:00:26;;;;;;;1.33;1.05;;;;;;;;;;1667807;29;22060;-63
2022/07/31 04:01:17;;;;;;;1.42;0.90;;;;;;;;;;1671711;29;21595;-63
2022/07/31 04:02:09;;;;;;;3.95;1.00;;;;;;;;;;1672792;29;22042;-63
2022/07/31 04:03:07;;;;;;;1.23;1.20;;;;;;;;;;1675473;29;22537;-64
2022/07/31 04:04:00;;;;;;;1.30;1.00;;;;;;;;;;1676190;29;21578;-63
2022/07/31 04:04:51;;;;;;;5.50;1.10;;;;;;;;;;1676364;29;21750;-63
2022/07/31 04:05:43;;;;;;;1.42;1.30;;;;;;;;;;1675535;29;22502;-63
2022/07/31 04:06:35;;;;;;;1.05;0.95;;;;;;;;;;1675350;29;22436;-63
2022/07/31 04:07:27;;;;;;;0.90;0.77;;;;;;;;;;1664019;29;21667;-63
2022/07/31 04:08:19;;;;;;;1.10;1.00;;;;;;;;;;1660271;29;21611;-63
2022/07/31 04:09:11;;;;;;;0.75;0.75;;;;;;;;;;1666032;29;22540;-63
2022/07/31 04:10:03;;;;;;;1.13;1.02;;;;;;;;;;1674177;29;21646;-63
2022/07/31 04:10:56;;;;;;;3.50;1.10;;;;;;;;;;1674214;29;21802;-63
2022/07/31 04:11:47;;;;;;;1.08;0.98;;;;;;;;;;1674856;29;21610;-64
2022/07/31 04:12:39;;;;;;;1.10;1.00;;;;;;;;;;1675483;29;22436;-64
2022/07/31 04:13:30;;;;;;;1.73;1.15;;;;;;;;;;1674400;29;21742;-64
2022/07/31 04:14:22;;;;;;;0.88;0.88;;;;;;;;;;1675141;29;21608;-64
2022/07/31 04:15:14;;;;;;;0.90;0.80;;;;;;;;;;1675824;29;21619;-64
2022/07/31 04:16:06;;;;;;;0.90;0.80;;;;;;;;;;1669955;29;21621;-64
2022/07/31 04:16:57;;;;;;;1.80;1.00;;;;;;;;;;1673315;29;21598;-64
2022/07/31 04:17:50;;;;;;;0.85;0.85;;;;;;;;;;1679496;29;22001;-64
2022/07/31 04:18:42;;;;;;;1.25;1.13;;;;;;;;;;1675233;29;21588;-64
2022/07/31 04:19:35;;;;;;;1.25;1.00;;;;;;;;;;1675019;29;21661;-64
2022/07/31 04:20:27;;;;;;;4.20;1.05;;;;;;;;;;1674938;29;22498;-64
2022/07/31 04:21:18;;;;;;;0.77;0.77;;;;;;;;;;1672966;29;22563;-64
2022/07/31 04:22:10;;;;;;;0.90;0.90;;;;;;;;;;1674879;29;22841;-64
2022/07/31 04:23:02;;;;;;;2.88;1.00;;;;;;;;;;1675242;29;22428;-64
2022/07/31 04:23:55;;;;;;;1.30;1.20;;;;;;;;;;1674191;29;21830;-64
2022/07/31 04:24:46;;;;;;;2.60;0.85;;;;;;;;;;1675360;29;21647;-64
2022/07/31 04:25:38;;;;;;;0.70;0.70;;;;;;;;;;1675204;29;21845;-64
2022/07/31 04:26:30;;;;;;;0.85;0.85;;;;;;;;;;1674784;29;22437;-64
2022/07/31 04:27:21;;;;;;;1.20;1.00;;;;;;;;;;1672845;29;21715;-64
2022/07/31 04:28:13;;;;;;;2.35;0.70;;;;;;;;;;1676234;29;21593;-64
2022/07/31 04:29:04;;;;;;;0.77;0.77;;;;;;;;;;1677327;29;21587;-64
2022/07/31 04:29:57;;;;;;;1.42;1.00;;;;;;;;;;1671544;29;22690;-64
2022/07/31 04:30:48;;;;;;;2.47;1.08;;;;;;;;;;1674402;29;22608;-64
2022/07/31 04:31:41;;;;;;;1.00;1.00;;;;;;;;;;1673171;29;21610;-64
2022/07/31 04:32:32;;;;;;;1.20;0.88;;;;;;;;;;1674091;29;22581;-64
2022/07/31 04:33:24;;;;;;;1.10;1.00;;;;;;;;;;1678279;29;21786;-64
2022/07/31 04:34:17;;;;;;;1.08;1.02;;;;;;;;;;1677929;29;22420;-65
2022/07/31 04:35:10;;;;;;;1.10;1.00;;;;;;;;;;1674293;29;22516;-64
2022/07/31 04:36:01;;;;;;;1.63;0.90;;;;;;;;;;1675477;29;22424;-64
2022/07/31 04:36:54;;;;;;;1.25;1.00;;;;;;;;;;1675367;29;21673;-64
2022/07/31 04:37:45;;;;;;;1.20;1.00;;;;;;;;;;1673321;29;21600;-64
2022/07/31 04:38:37;;;;;;;0.90;0.90;;;;;;;;;;1676425;29;22132;-64
2022/07/31 04:39:28;;;;;;;1.00;0.90;;;;;;;;;;1676538;29;21784;-64
2022/07/31 04:40:21;;;;;;;0.90;0.90;;;;;;;;;;1672686;29;21572;-64
2022/07/31 04:41:12;;;;;;;3.67;0.90;;;;;;;;;;1671802;29;21663;-62
2022/07/31 04:42:06;;;;;;;1.55;1.00;;;;;;;;;;1674229;29;21938;-62
2022/07/31 04:42:57;;;;;;;0.93;0.80;;;;;;;;;;1676376;29;21614;-62
2022/07/31 04:43:49;;;;;;;1.58;1.10;;;;;;;;;;1671618;29;21694;-65
2022/07/31 04:44:40;;;;;;;1.02;0.98;;;;;;;;;;1677128;29;22907;-63
2022/07/31 04:45:33;;;;;;;0.77;0.77;;;;;;;;;;1674977;29;21680;-63
2022/07/31 04:46:24;;;;;;;1.67;0.80;;;;;;;;;;1672686;29;22452;-63
2022/07/31 04:47:16;;;;;;;1.10;1.10;;;;;;;;;;1675036;29;21888;-63
2022/07/31 04:48:08;;;;;;;0.90;0.90;;;;;;;;;;1675159;29;22450;-63
2022/07/31 04:49:00;;;;;;;0.80;0.80;;;;;;;;;;1674643;29;21665;-63
2022/07/31 04:49:53;;;;;;;0.98;0.93;;;;;;;;;;1674265;29;21782;-63
2022/07/31 04:50:45;;;;;;;1.15;1.00;;;;;;;;;;1676956;29;22610;-63
2022/07/31 04:51:37;;;;;;;1.35;1.10;;;;;;;;;;1672422;29;22015;-63
2022/07/31 04:52:28;;;;;;;1.08;1.08;;;;;;;;;;1675131;29;21612;-63
2022/07/31 04:53:20;;;;;;;1.17;0.75;;;;;;;;;;1675900;29;22035;-63
2022/07/31 04:54:11;;;;;;;1.48;0.80;;;;;;;;;;1675783;29;21762;-63
2022/07/31 04:55:04;;;;;;;0.90;0.90;;;;;;;;;;1676716;29;22109;-63
2022/07/31 04:57:07;;;;;;;0.63;0.63;;;;;;;;;;1671774;29;22052;-63
2022/07/31 04:57:58;;;;;;;0.82;0.82;;;;;;;;;;1675183;29;22238;-64
2022/07/31 04:58:49;;;;;;;1.10;0.82;;;;;;;;;;1667868;29;21606;-63
2022/07/31 04:59:42;;;;;;;0.90;0.90;;;;;;;;;;1668145;29;21893;-63
2022/07/31 05:00:33;;;;;;;1.08;1.00;;;;;;;;;;1670289;29;21669;-63
2022/07/31 05:01:24;;;;;;;0.93;0.90;;;;;;;;;;1672744;29;21927;-63
2022/07/31 05:02:17;;;;;;;0.65;0.65;;;;;;;;;;1675857;29;21660;-63
2022/07/31 05:03:08;;;;;;;0.80;0.80;;;;;;;;;;1674081;29;21906;-64
2022/07/31 05:04:00;;;;;;;0.90;0.90;;;;;;;;;;1676093;29;22161;-63
2022/07/31 05:04:53;;;;;;;1.10;1.00;;;;;;;;;;1673753;29;22146;-63
2022/07/31 05:05:45;;;;;;;1.15;1.05;;;;;;;;;;1674000;29;21737;-63
2022/07/31 05:06:39;;;;;;;1.00;0.93;;;;;;;;;;1674836;29;22436;-63
2022/07/31 05:07:33;;;;;;;1.02;1.00;;;;;;;;;;1671751;29;21694;-63
2022/07/31 05:08:24;;;;;;;1.10;1.00;;;;;;;;;;1674890;29;21653;-63
2022/07/31 05:09:19;;;;;;;0.80;0.80;;;;;;;;;;1678536;29;22473;-63
2022/07/31 05:11:21;;;;;;;1.10;1.05;;;;;;;;;;1675508;29;21609;-64
2022/07/31 05:11:22;;;;;;;1.30;1.20;;;;;;;;;;1672148;29;21769;-64
2022/07/31 05:12:14;;;;;;;0.80;0.80;;;;;;;;;;1676819;29;22017;-64
2022/07/31 05:13:05;;;;;;;0.80;0.80;;;;;;;;;;1677228;29;21949;-63
2022/07/31 05:14:00;;;;;;;1.02;0.95;;;;;;;;;;1676544;29;22372;-63
2022/07/31 05:14:52;;;;;;;0.68;0.68;;;;;;;;;;1675309;29;21587;-63
2022/07/31 05:15:43;;;;;;;0.82;0.80;;;;;;;;;;1675553;29;22438;-63
2022/07/31 05:16:36;;;;;;;1.15;0.80;;;;;;;;;;1676384;29;22523;-64
2022/07/31 05:17:27;;;;;;;1.40;1.05;;;;;;;;;;1676787;29;22781;-64
2022/07/31 05:18:19;;;;;;;0.60;0.60;;;;;;;;;;1677760;29;21700;-64